createdAt,value
2023-03-11T00:00:27.912Z,9.05
2023-03-11T00:03:30.766Z,9.05
2023-03-11T00:06:23.860Z,9.04
2023-03-11T00:08:59.307Z,9.04
2023-03-11T00:11:52.239Z,9.04
2023-03-11T00:14:45.087Z,9.00
2023-03-11T00:17:38.039Z,8.92
2023-03-11T00:20:33.004Z,8.89
2023-03-11T00:23:18.823Z,8.88
2023-03-11T00:25:54.917Z,8.87
2023-03-11T00:28:40.602Z,8.84
2023-03-11T00:31:26.626Z,8.79
2023-03-11T00:34:03.514Z,8.75
2023-03-11T00:36:39.261Z,8.71
2023-03-11T00:39:32.104Z,8.69
2023-03-11T00:42:05.132Z,8.66
2023-03-11T00:44:48.088Z,8.63
2023-03-11T00:47:31.482Z,8.57
2023-03-11T00:50:19.192Z,8.53
2023-03-11T00:53:15.679Z,8.50
2023-03-11T00:55:58.658Z,8.48
2023-03-11T00:58:42.305Z,8.45
2023-03-11T01:01:35.212Z,8.44
2023-03-11T01:04:28.335Z,8.44
2023-03-11T01:07:02.967Z,8.44
2023-03-11T01:09:47.185Z,8.43
2023-03-11T01:12:40.107Z,8.43
2023-03-11T01:15:35.438Z,8.45
2023-03-11T01:18:28.791Z,8.47
2023-03-11T01:21:14.433Z,8.50
2023-03-11T01:24:00.360Z,8.53
2023-03-11T01:26:47.773Z,8.54
2023-03-11T01:29:39.386Z,8.55
2023-03-11T01:32:15.557Z,8.57
2023-03-11T01:35:09.701Z,8.58
2023-03-11T01:37:47.558Z,8.59
2023-03-11T01:40:26.588Z,8.60
2023-03-11T01:43:05.777Z,8.60
2023-03-11T01:46:17.158Z,8.62
2023-03-11T01:49:15.069Z,8.61
2023-03-11T01:51:52.191Z,8.61
2023-03-11T01:54:39.032Z,8.60
2023-03-11T01:57:17.808Z,8.60
2023-03-11T02:00:15.937Z,8.60
2023-03-11T02:02:55.627Z,8.61
2023-03-11T02:05:31.910Z,8.62
2023-03-11T02:08:25.577Z,8.65
2023-03-11T02:11:21.990Z,8.69
2023-03-11T02:14:15.195Z,8.72
2023-03-11T02:17:08.297Z,8.71
2023-03-11T02:20:14.199Z,8.71
2023-03-11T02:22:57.234Z,8.73
2023-03-11T02:25:58.804Z,8.73
2023-03-11T02:28:54.493Z,8.73
2023-03-11T02:31:49.338Z,8.74
2023-03-11T02:34:28.318Z,8.75
2023-03-11T02:37:02.450Z,8.76
2023-03-11T02:39:37.217Z,8.78
2023-03-11T02:42:16.743Z,8.79
2023-03-11T02:45:07.636Z,8.80
2023-03-11T02:47:51.545Z,8.80
2023-03-11T02:50:27.573Z,8.80
2023-03-11T02:53:03.709Z,8.79
2023-03-11T02:55:39.726Z,8.80
2023-03-11T02:58:28.649Z,8.79
2023-03-11T03:01:12.763Z,8.78
2023-03-11T03:03:48.906Z,8.76
2023-03-11T03:06:41.979Z,8.74
2023-03-11T03:09:36.387Z,8.75
2023-03-11T03:12:23.264Z,8.75
2023-03-11T03:14:59.474Z,8.75
2023-03-11T03:17:35.614Z,8.76
2023-03-11T03:20:18.195Z,8.76
2023-03-11T03:22:55.822Z,8.77
2023-03-11T03:25:49.064Z,8.78
2023-03-11T03:28:33.356Z,8.80
2023-03-11T03:31:26.442Z,8.80
2023-03-11T03:34:08.835Z,8.79
2023-03-11T03:37:01.739Z,8.76
2023-03-11T03:39:40.399Z,8.74
2023-03-11T03:42:16.595Z,8.71
2023-03-11T03:44:53.814Z,8.71
2023-03-11T03:47:37.788Z,8.71
2023-03-11T03:50:14.357Z,8.72
2023-03-11T03:53:03.058Z,8.70
2023-03-11T03:55:55.932Z,8.70
2023-03-11T03:58:32.009Z,8.70
2023-03-11T04:01:10.119Z,8.70
2023-03-11T04:03:43.645Z,8.69
2023-03-11T04:06:22.280Z,8.68
2023-03-11T04:09:05.263Z,8.70
2023-03-11T04:11:45.511Z,8.72
2023-03-11T04:14:28.367Z,8.74
2023-03-11T04:17:13.809Z,8.75
2023-03-11T04:20:09.222Z,8.74
2023-03-11T04:23:02.015Z,8.72
2023-03-11T04:25:46.707Z,8.70
2023-03-11T04:28:24.499Z,8.66
2023-03-11T04:31:11.930Z,8.62
2023-03-11T04:34:04.797Z,8.55
2023-03-11T04:36:37.769Z,8.52
2023-03-11T04:39:30.293Z,8.48
2023-03-11T04:42:22.840Z,8.47
2023-03-11T04:45:00.916Z,8.46
2023-03-11T04:47:38.694Z,8.45
2023-03-11T04:50:22.293Z,8.44
2023-03-11T04:53:06.804Z,8.41
2023-03-11T04:55:45.032Z,8.39
2023-03-11T04:58:25.960Z,8.37
2023-03-11T05:00:58.603Z,8.34
2023-03-11T05:03:42.269Z,8.30
2023-03-11T05:06:35.231Z,8.25
2023-03-11T05:09:23.186Z,8.21
2023-03-11T05:11:59.365Z,8.18
2023-03-11T05:14:34.133Z,8.15
2023-03-11T05:17:20.076Z,8.13
2023-03-11T05:20:06.373Z,8.09
2023-03-11T05:22:43.875Z,8.07
2023-03-11T05:25:27.842Z,8.05
2023-03-11T05:28:13.622Z,8.04
2023-03-11T05:30:55.919Z,8.04
2023-03-11T05:33:49.621Z,8.05
2023-03-11T05:36:31.904Z,8.06
2023-03-11T05:39:24.836Z,8.06
2023-03-11T05:42:20.993Z,8.08
2023-03-11T05:45:03.311Z,8.07
2023-03-11T05:47:56.223Z,8.06
2023-03-11T05:50:49.446Z,8.06
2023-03-11T05:53:43.625Z,8.06
2023-03-11T05:56:36.421Z,8.06
2023-03-11T05:59:28.146Z,8.07
2023-03-11T06:02:06.289Z,8.08
2023-03-11T06:04:46.033Z,8.08
2023-03-11T06:07:39.379Z,8.06
2023-03-11T06:10:32.134Z,8.05
2023-03-11T06:13:12.397Z,8.06
2023-03-11T06:16:01.765Z,8.08
2023-03-11T06:18:46.037Z,8.11
2023-03-11T06:21:29.460Z,8.13
2023-03-11T06:24:06.204Z,8.16
2023-03-11T06:26:54.191Z,8.18
2023-03-11T06:29:38.313Z,8.16
2023-03-11T06:32:31.239Z,8.15
2023-03-11T06:35:11.434Z,8.16
2023-03-11T06:38:04.222Z,8.16
2023-03-11T06:41:00.093Z,8.17
2023-03-11T06:43:53.108Z,8.17
2023-03-11T06:46:36.179Z,8.14
2023-03-11T06:49:28.954Z,8.11
2023-03-11T06:52:11.931Z,8.09
2023-03-11T06:54:51.926Z,8.10
2023-03-11T06:57:32.229Z,8.15
2023-03-11T07:00:25.215Z,8.20
2023-03-11T07:03:05.593Z,8.20
2023-03-11T07:05:54.930Z,8.19
2023-03-11T07:08:31.208Z,8.12
2023-03-11T07:11:25.761Z,8.01
2023-03-11T07:14:05.125Z,7.90
2023-03-11T07:16:42.521Z,7.83
2023-03-11T07:19:35.425Z,7.77
2023-03-11T07:22:19.082Z,7.74
2023-03-11T07:25:04.209Z,7.73
2023-03-11T07:27:57.425Z,7.73
2023-03-11T07:30:52.434Z,7.71
2023-03-11T07:33:28.842Z,7.65
2023-03-11T07:36:09.018Z,7.61
2023-03-11T07:38:55.950Z,7.56
2023-03-11T07:41:48.774Z,7.53
2023-03-11T07:44:21.659Z,7.51
2023-03-11T07:46:54.540Z,7.51
2023-03-11T07:49:37.077Z,7.52
2023-03-11T07:52:20.202Z,7.56
2023-03-11T07:54:56.236Z,7.56
2023-03-11T07:57:33.854Z,7.57
2023-03-11T08:00:16.108Z,7.55
2023-03-11T08:02:52.118Z,7.48
2023-03-11T08:05:43.970Z,7.37
2023-03-11T08:08:26.906Z,7.32
2023-03-11T08:11:13.885Z,7.25
2023-03-11T08:14:07.278Z,7.13
2023-03-11T08:16:50.003Z,7.07
2023-03-11T08:19:32.912Z,7.09
2023-03-11T08:22:08.209Z,7.15
2023-03-11T08:25:01.062Z,7.17
2023-03-11T08:27:54.279Z,7.16
2023-03-11T08:30:47.405Z,7.07
2023-03-11T08:33:29.371Z,6.97
2023-03-11T08:36:22.808Z,6.98
2023-03-11T08:39:05.470Z,7.05
2023-03-11T08:41:59.899Z,7.05
2023-03-11T08:44:53.130Z,6.92
2023-03-11T08:47:25.908Z,6.75
2023-03-11T08:50:21.509Z,6.60
2023-03-11T08:53:00.604Z,6.38
2023-03-11T08:55:43.558Z,6.20
2023-03-11T08:58:37.026Z,6.04
2023-03-11T09:01:24.309Z,5.95
2023-03-11T09:03:57.538Z,5.85
2023-03-11T09:06:43.270Z,5.73
2023-03-11T09:09:38.220Z,5.61
2023-03-11T09:12:31.223Z,5.50
2023-03-11T09:15:11.385Z,5.38
2023-03-11T09:18:04.749Z,5.31
2023-03-11T09:20:40.786Z,5.38
2023-03-11T09:23:32.555Z,5.35
2023-03-11T09:26:17.275Z,5.36
2023-03-11T09:28:50.518Z,5.37
2023-03-11T09:31:27.886Z,5.32
2023-03-11T09:34:01.459Z,5.24
2023-03-11T09:36:34.690Z,5.15
2023-03-11T09:39:07.615Z,5.08
2023-03-11T09:41:57.877Z,5.05
2023-03-11T09:44:38.700Z,5.06
2023-03-11T09:47:26.206Z,5.03
2023-03-11T09:50:16.816Z,5.07
2023-03-11T09:52:58.038Z,5.12
2023-03-11T09:55:44.008Z,5.00
2023-03-11T09:58:22.884Z,4.81
2023-03-11T10:00:56.329Z,4.75
2023-03-11T10:03:38.648Z,4.78
2023-03-11T10:06:24.115Z,4.78
2023-03-11T10:09:04.387Z,4.75
2023-03-11T10:12:04.236Z,4.86
2023-03-11T10:15:02.950Z,4.94
2023-03-11T10:17:54.443Z,4.99
2023-03-11T10:20:43.872Z,5.14
2023-03-11T10:23:27.469Z,5.37
2023-03-11T10:26:09.701Z,5.63
2023-03-11T10:28:57.665Z,5.96
2023-03-11T10:31:40.130Z,6.21
2023-03-11T10:34:28.487Z,6.38
2023-03-11T10:37:07.236Z,6.58
2023-03-11T10:39:51.689Z,6.78
2023-03-11T10:42:30.307Z,6.90
2023-03-11T10:45:15.400Z,6.88
2023-03-11T10:47:48.172Z,6.79
2023-03-11T10:50:21.898Z,6.88
2023-03-11T10:53:10.066Z,6.79
2023-03-11T10:55:54.722Z,6.48
2023-03-11T10:58:28.756Z,6.23
2023-03-11T11:01:15.625Z,5.90
2023-03-11T11:03:52.141Z,5.55
2023-03-11T11:06:31.580Z,5.27
2023-03-11T11:09:22.063Z,5.16
2023-03-11T11:12:13.394Z,5.17
2023-03-11T11:14:51.404Z,5.23
2023-03-11T11:17:31.571Z,5.40
2023-03-11T11:20:17.746Z,5.41
2023-03-11T11:22:56.480Z,5.44
2023-03-11T11:25:32.069Z,5.44
2023-03-11T11:28:17.545Z,5.35
2023-03-11T11:30:58.255Z,5.38
2023-03-11T11:33:33.790Z,5.36
2023-03-11T11:36:19.660Z,5.23
2023-03-11T11:38:56.693Z,5.24
2023-03-11T11:41:30.881Z,5.28
2023-03-11T11:44:14.303Z,5.27
2023-03-11T11:46:52.621Z,5.19
2023-03-11T11:49:30.580Z,4.95
2023-03-11T11:52:19.418Z,4.85
2023-03-11T11:55:05.309Z,4.94
2023-03-11T11:57:38.395Z,4.94
2023-03-11T12:00:25.508Z,4.86
2023-03-11T12:03:18.315Z,4.78
2023-03-11T12:05:58.507Z,4.70
2023-03-11T12:08:41.302Z,4.56
2023-03-11T12:11:20.458Z,4.41
2023-03-11T12:14:03.378Z,4.28
2023-03-11T12:16:47.800Z,4.15
2023-03-11T12:19:27.741Z,4.13
2023-03-11T12:22:36.392Z,4.28
2023-03-11T12:25:42.985Z,4.47
2023-03-11T12:28:25.372Z,4.64
2023-03-11T12:31:01.611Z,4.95
2023-03-11T12:33:38.528Z,5.34
2023-03-11T12:36:27.280Z,5.52
2023-03-11T12:39:01.655Z,5.45
2023-03-11T12:41:40.197Z,5.36
2023-03-11T12:44:32.755Z,5.14
2023-03-11T12:47:20.668Z,4.91
2023-03-11T12:49:57.457Z,4.74
2023-03-11T12:52:52.682Z,4.59
2023-03-11T12:55:34.902Z,4.39
2023-03-11T12:58:39.157Z,4.25
2023-03-11T13:01:33.370Z,4.06
2023-03-11T13:04:28.150Z,3.95
2023-03-11T13:07:45.113Z,3.85
2023-03-11T13:10:22.160Z,3.77
2023-03-11T13:12:57.811Z,3.70
2023-03-11T13:15:37.192Z,3.67
2023-03-11T13:18:24.720Z,3.61
2023-03-11T13:20:59.339Z,3.61
2023-03-11T13:23:37.132Z,3.65
2023-03-11T13:26:44.757Z,3.66
2023-03-11T13:29:59.312Z,3.59
2023-03-11T13:33:15.657Z,3.57
2023-03-11T13:36:00.620Z,3.53
2023-03-11T13:39:13.089Z,3.46
2023-03-11T13:41:47.700Z,3.38
2023-03-11T13:44:31.760Z,3.29
2023-03-11T13:47:11.229Z,3.26
2023-03-11T13:49:47.412Z,3.20
2023-03-11T13:52:28.776Z,3.08
2023-03-11T13:55:07.768Z,2.97
2023-03-11T13:57:41.169Z,2.85
2023-03-11T14:00:24.214Z,2.76
2023-03-11T14:03:01.209Z,2.70
2023-03-11T14:06:01.766Z,2.67
2023-03-11T14:08:53.784Z,2.66
2023-03-11T14:11:49.180Z,2.64
2023-03-11T14:14:41.966Z,2.60
2023-03-11T14:17:35.099Z,2.54
2023-03-11T14:20:31.959Z,2.43
2023-03-11T14:23:27.504Z,2.34
2023-03-11T14:26:16.493Z,2.26
2023-03-11T14:28:52.472Z,2.14
2023-03-11T14:31:38.437Z,2.03
2023-03-11T14:34:19.142Z,1.89
2023-03-11T14:36:57.174Z,1.82
2023-03-11T14:39:35.052Z,1.75
2023-03-11T14:42:26.247Z,1.67
2023-03-11T14:45:16.718Z,1.60
2023-03-11T14:47:58.054Z,1.56
2023-03-11T14:50:35.142Z,1.46
2023-03-11T14:53:15.972Z,1.43
2023-03-11T14:55:56.019Z,1.38
2023-03-11T14:58:35.903Z,1.35
2023-03-11T15:01:15.641Z,1.32
2023-03-11T15:03:53.443Z,1.25
2023-03-11T15:06:30.299Z,1.23
2023-03-11T15:09:07.990Z,1.15
2023-03-11T15:11:55.660Z,1.09
2023-03-11T15:14:33.670Z,1.04
2023-03-11T15:17:33.793Z,0.97
2023-03-11T15:20:24.104Z,0.87
2023-03-11T15:23:02.091Z,0.76
2023-03-11T15:25:50.399Z,0.73
2023-03-11T15:28:29.943Z,0.71
2023-03-11T15:31:31.833Z,0.69
2023-03-11T15:34:27.705Z,0.67
2023-03-11T15:37:26.677Z,0.67
2023-03-11T15:40:19.232Z,0.70
2023-03-11T15:43:21.505Z,0.65
2023-03-11T15:45:55.511Z,0.67
2023-03-11T15:48:40.582Z,0.63
2023-03-11T15:51:22.475Z,0.62
2023-03-11T15:54:04.321Z,0.54
2023-03-11T15:56:37.365Z,0.57
2023-03-11T15:59:16.571Z,0.60
2023-03-11T16:01:49.448Z,0.63
2023-03-11T16:04:25.277Z,0.64
2023-03-11T16:07:07.580Z,0.61
2023-03-11T16:09:44.879Z,0.54
2023-03-11T16:12:22.781Z,0.50
2023-03-11T16:14:55.718Z,0.42
2023-03-11T16:17:48.334Z,0.36
2023-03-11T16:20:26.814Z,0.30
2023-03-11T16:23:01.976Z,0.26
2023-03-11T16:25:39.382Z,0.19
2023-03-11T16:28:32.235Z,0.19
2023-03-11T16:31:28.447Z,0.18
2023-03-11T16:34:03.749Z,0.11
2023-03-11T16:36:40.161Z,0.04
2023-03-11T16:39:15.832Z,0.01
2023-03-11T16:41:50.030Z,-0.02
2023-03-11T16:44:26.159Z,-0.03
2023-03-11T16:47:02.008Z,-0.01
2023-03-11T16:49:34.768Z,-0.01
2023-03-11T16:52:08.351Z,0.03
2023-03-11T16:54:41.320Z,0.03
2023-03-11T16:57:14.718Z,0.01
2023-03-11T16:59:59.424Z,-0.01
2023-03-11T17:02:35.569Z,-0.01
2023-03-11T17:05:10.370Z,-0.01
2023-03-11T17:07:43.525Z,-0.02
2023-03-11T17:10:17.137Z,-0.03
2023-03-11T17:13:00.175Z,-0.07
2023-03-11T17:15:34.899Z,-0.08
2023-03-11T17:18:18.808Z,-0.07
2023-03-11T17:20:54.400Z,-0.04
2023-03-11T17:23:31.797Z,0.00
2023-03-11T17:26:08.850Z,0.02
2023-03-11T17:28:44.621Z,0.01
2023-03-11T17:31:18.656Z,-0.03
2023-03-11T17:33:53.090Z,-0.07
2023-03-11T17:36:26.458Z,-0.04
2023-03-11T17:39:02.416Z,-0.06
2023-03-11T17:41:37.688Z,-0.07
2023-03-11T17:44:11.232Z,-0.06
2023-03-11T17:46:46.594Z,-0.06
2023-03-11T17:49:24.552Z,-0.05
2023-03-11T17:51:57.578Z,-0.06
2023-03-11T17:54:30.375Z,-0.05
2023-03-11T17:57:04.161Z,-0.10
2023-03-11T17:59:40.876Z,-0.10
2023-03-11T18:02:22.378Z,-0.11
2023-03-11T18:04:55.384Z,-0.10
2023-03-11T18:07:29.238Z,-0.09
2023-03-11T18:10:01.890Z,-0.08
2023-03-11T18:12:35.214Z,-0.10
2023-03-11T18:15:19.311Z,-0.11
2023-03-11T18:17:56.984Z,-0.18
2023-03-11T18:20:32.772Z,-0.17
2023-03-11T18:23:06.238Z,-0.21
2023-03-11T18:25:41.449Z,-0.23
2023-03-11T18:28:16.728Z,-0.23
2023-03-11T18:30:55.428Z,-0.22
2023-03-11T18:33:31.020Z,-0.22
2023-03-11T18:36:14.283Z,-0.22
2023-03-11T18:38:47.690Z,-0.21
2023-03-11T18:41:22.951Z,-0.17
2023-03-11T18:43:57.487Z,-0.14
2023-03-11T18:46:32.616Z,-0.10
2023-03-11T18:49:17.552Z,-0.10
2023-03-11T18:51:50.166Z,-0.08
2023-03-11T18:54:23.101Z,-0.11
2023-03-11T18:56:56.001Z,-0.13
2023-03-11T18:59:28.981Z,-0.15
2023-03-11T19:02:01.764Z,-0.15
2023-03-11T19:04:34.904Z,-0.13
2023-03-11T19:07:08.314Z,-0.17
2023-03-11T19:09:40.901Z,-0.19
2023-03-11T19:12:13.543Z,-0.20
2023-03-11T19:14:46.649Z,-0.24
2023-03-11T19:17:22.473Z,-0.25
2023-03-11T19:20:16.042Z,-0.30
2023-03-11T19:22:49.084Z,-0.34
2023-03-11T19:25:27.789Z,-0.36
2023-03-11T19:28:04.294Z,-0.43
2023-03-11T19:30:37.052Z,-0.49
2023-03-11T19:33:10.149Z,-0.51
2023-03-11T19:35:56.944Z,-0.51
2023-03-11T19:38:32.495Z,-0.53
2023-03-11T19:41:10.364Z,-0.58
2023-03-11T19:43:45.670Z,-0.61
2023-03-11T19:46:21.072Z,-0.66
2023-03-11T19:48:56.725Z,-0.69
2023-03-11T19:51:38.878Z,-0.71
2023-03-11T19:54:39.809Z,-0.73
2023-03-11T19:57:15.644Z,-0.73
2023-03-11T19:59:51.429Z,-0.72
2023-03-11T20:02:35.393Z,-0.74
2023-03-11T20:05:12.309Z,-0.72
2023-03-11T20:07:47.527Z,-0.72
2023-03-11T20:10:23.844Z,-0.75
2023-03-11T20:13:02.500Z,-0.76
2023-03-11T20:15:35.469Z,-0.76
2023-03-11T20:18:08.837Z,-0.72
2023-03-11T20:20:43.425Z,-0.70
2023-03-11T20:23:17.305Z,-0.66
2023-03-11T20:25:50.095Z,-0.65
2023-03-11T20:28:22.987Z,-0.63
2023-03-11T20:30:55.759Z,-0.66
2023-03-11T20:33:28.626Z,-0.67
2023-03-11T20:36:08.585Z,-0.69
2023-03-11T20:38:42.071Z,-0.68
2023-03-11T20:41:14.790Z,-0.71
2023-03-11T20:43:47.638Z,-0.73
2023-03-11T20:46:20.740Z,-0.75
2023-03-11T20:48:54.278Z,-0.78
2023-03-11T20:51:26.970Z,-0.82
2023-03-11T20:53:59.787Z,-0.86
2023-03-11T20:56:32.500Z,-0.87
2023-03-11T20:59:09.984Z,-0.86
2023-03-11T21:01:47.816Z,-0.85
2023-03-11T21:04:21.408Z,-0.85
2023-03-11T21:06:55.489Z,-0.83
2023-03-11T21:09:28.226Z,-0.82
2023-03-11T21:12:02.361Z,-0.79
2023-03-11T21:14:35.612Z,-0.78
2023-03-11T21:17:08.541Z,-0.77
2023-03-11T21:19:44.927Z,-0.74
2023-03-11T21:22:28.951Z,-0.71
2023-03-11T21:25:12.568Z,-0.70
2023-03-11T21:27:47.993Z,-0.73
2023-03-11T21:30:21.223Z,-0.78
2023-03-11T21:32:56.828Z,-0.81
2023-03-11T21:35:31.158Z,-0.86
2023-03-11T21:38:06.973Z,-0.87
2023-03-11T21:40:42.309Z,-0.85
2023-03-11T21:43:17.495Z,-0.86
2023-03-11T21:45:54.179Z,-0.84
2023-03-11T21:48:26.909Z,-0.82
2023-03-11T21:50:59.901Z,-0.81
2023-03-11T21:53:34.040Z,-0.77
2023-03-11T21:56:10.357Z,-0.76
2023-03-11T21:58:43.528Z,-0.79
2023-03-11T22:01:18.771Z,-0.84
2023-03-11T22:03:51.939Z,-0.90
2023-03-11T22:06:26.039Z,-0.96
2023-03-11T22:08:59.177Z,-1.00
2023-03-11T22:11:35.048Z,-1.04
2023-03-11T22:14:07.872Z,-1.07
2023-03-11T22:16:41.082Z,-1.08
2023-03-11T22:19:16.976Z,-1.08
2023-03-11T22:21:49.784Z,-1.10
2023-03-11T22:24:22.885Z,-1.13
2023-03-11T22:26:55.590Z,-1.13
2023-03-11T22:29:30.449Z,-1.11
2023-03-11T22:32:06.958Z,-1.09
2023-03-11T22:34:42.357Z,-1.07
2023-03-11T22:37:15.270Z,-1.04
2023-03-11T22:39:59.866Z,-1.04
2023-03-11T22:42:52.860Z,-1.07
2023-03-11T22:45:25.605Z,-1.09
2023-03-11T22:48:01.343Z,-1.12
2023-03-11T22:50:40.746Z,-1.13
2023-03-11T22:53:15.162Z,-1.11
2023-03-11T22:55:48.200Z,-1.09
2023-03-11T22:58:23.279Z,-1.07
2023-03-11T23:00:58.205Z,-1.04
2023-03-11T23:03:31.196Z,-1.02
2023-03-11T23:06:09.739Z,-1.00
2023-03-11T23:08:42.652Z,-0.99
2023-03-11T23:11:18.660Z,-0.97
2023-03-11T23:14:11.611Z,-0.95
2023-03-11T23:16:47.197Z,-0.92
2023-03-11T23:19:22.189Z,-0.91
2023-03-11T23:21:59.501Z,-0.89
2023-03-11T23:24:43.434Z,-0.85
2023-03-11T23:27:19.531Z,-0.82
2023-03-11T23:29:52.822Z,-0.85
2023-03-11T23:32:26.726Z,-0.88
2023-03-11T23:34:59.646Z,-0.91
2023-03-11T23:37:34.510Z,-0.93
2023-03-11T23:40:09.575Z,-0.93
2023-03-11T23:42:44.950Z,-0.93
2023-03-11T23:45:26.838Z,-0.90
2023-03-11T23:47:59.559Z,-0.86
2023-03-11T23:50:47.435Z,-0.84
2023-03-11T23:53:23.242Z,-0.82
2023-03-11T23:55:56.395Z,-0.85
2023-03-11T23:58:29.753Z,-0.85
